Lively, Virginia
Current Conditions -  °F | °C
As of 11:15 PM on Tuesday 21 Oct 2014 (Local Time) from KW75 Reporting Station
Overcast Overcast  
Wind Chill: 57°   Ceiling: 11000
Heat Index: 57°   Visibility: 10mi
Dew Point: 53°   Wind: 8mph
Humidity: 89%   Direction: 310°NW
Pressure: 29.86"   Gusts: 16mph
Location:  37.78°N, 76.51°W
Report Text: KW75 220315Z AUTO 31007G14KT 280V360 10SM SCT011 OVC110 14/12 A2986 RMK AO1 T01370119
Loading
Personal Weather Stations






























Interactive Weather Map
Tropical Storm Tracking
New forecast layout! Learn more

10-Day Weather Forecast

Advertisements
Track Severe Weather on mobile